Time;durP1;ratioP1;P1;durP2;ratioP2;P2;SDS_P1;SDS_P2;PMS_P1;PMS_P2;Temp;Humidity;BMP_temperature;BMP_pressure;BME280_temperature;BME280_humidity;BME280_pressure;Samples;Min_cycle;Max_cycle;Signal;HPM_P1;HPM_P2
2022/04/01 04:04:37;;;;;;;15.50;14.00;;;5.70;99.90;;;;;;5713663;23;20521;-79
2022/04/01 04:07:08;;;;;;;14.37;12.97;;;5.50;99.90;;;;;;4927073;29;20283;-79
2022/04/01 04:09:39;;;;;;;14.17;12.77;;;5.70;99.90;;;;;;4916478;29;20288;-76
2022/04/01 04:12:09;;;;;;;14.03;12.63;;;5.50;99.90;;;;;;4935317;29;20208;-78
2022/04/01 04:14:40;;;;;;;13.23;11.93;;;5.60;99.90;;;;;;4935561;29;20692;-79
2022/04/01 04:17:14;;;;;;;10.07;8.90;;;5.60;99.90;;;;;;4935756;29;20299;-79
2022/04/01 04:19:51;;;;;;;9.57;8.20;;;5.50;99.90;;;;;;4935449;29;20271;-80
2022/04/01 04:22:30;;;;;;;7.37;6.53;;;5.50;99.90;;;;;;4937731;29;20192;-78
2022/04/01 04:24:59;;;;;;;7.70;6.20;;;5.50;99.90;;;;;;4935545;29;20240;-78
2022/04/01 04:27:30;;;;;;;8.03;7.00;;;5.50;99.90;;;;;;4935447;29;20209;-78
2022/04/01 04:30:08;;;;;;;8.40;7.50;;;5.50;99.90;;;;;;4935387;29;20240;-78
2022/04/01 04:32:39;;;;;;;7.50;6.67;;;5.50;99.90;;;;;;4934735;29;20196;-78
2022/04/01 04:35:12;;;;;;;6.37;5.77;;;5.40;99.90;;;;;;4935915;29;20247;-79
2022/04/01 04:37:45;;;;;;;6.37;5.77;;;5.30;99.90;;;;;;4935243;29;20583;-78
2022/04/01 04:40:17;;;;;;;6.10;5.50;;;5.20;99.90;;;;;;4935662;29;20270;-77
2022/04/01 04:42:46;;;;;;;6.70;6.10;;;5.20;99.90;;;;;;4935774;29;20193;-77
2022/04/01 04:45:15;;;;;;;6.90;6.20;;;5.10;99.90;;;;;;4935370;29;20212;-78
2022/04/01 04:47:44;;;;;;;6.80;5.90;;;5.10;99.90;;;;;;4935419;29;20216;-78
2022/04/01 04:50:13;;;;;;;6.53;5.83;;;5.00;99.90;;;;;;4935522;29;20310;-79
2022/04/01 04:52:42;;;;;;;6.87;6.17;;;5.00;99.90;;;;;;4935846;29;20299;-80
2022/04/01 04:55:13;;;;;;;6.63;5.77;;;5.00;99.90;;;;;;4935780;29;20315;-78
2022/04/01 04:57:43;;;;;;;6.47;5.80;;;5.00;99.90;;;;;;4941128;29;20267;-77
2022/04/01 05:00:16;;;;;;;6.27;5.53;;;4.90;99.90;;;;;;4952319;29;20215;-78
2022/04/01 05:02:58;;;;;;;6.53;5.90;;;4.90;99.90;;;;;;4954744;29;20263;-75
2022/04/01 05:05:32;;;;;;;6.30;5.60;;;4.90;99.90;;;;;;4937299;29;20237;-76
2022/04/01 05:08:08;;;;;;;7.00;5.30;;;4.80;99.90;;;;;;4941000;29;20261;-78
2022/04/01 05:10:44;;;;;;;6.40;5.60;;;4.80;99.90;;;;;;4936347;29;20210;-75
2022/04/01 05:13:21;;;;;;;5.90;5.27;;;4.70;99.90;;;;;;4927610;29;20198;-79
2022/04/01 05:15:53;;;;;;;6.10;5.50;;;4.70;99.90;;;;;;4935264;29;20620;-80
2022/04/01 05:18:30;;;;;;;5.90;5.30;;;4.60;99.90;;;;;;4935469;29;20192;-78
2022/04/01 05:21:04;;;;;;;5.93;5.00;;;4.60;99.90;;;;;;4924654;29;20216;-79
2022/04/01 05:23:48;;;;;;;5.63;5.07;;;4.60;99.90;;;;;;4926786;29;20278;-78
2022/04/01 05:26:20;;;;;;;5.90;5.00;;;4.50;99.90;;;;;;4935831;29;20215;-79
2022/04/01 05:28:53;;;;;;;5.60;5.07;;;4.40;99.90;;;;;;4939220;29;20223;-78
2022/04/01 05:31:34;;;;;;;5.50;5.00;;;4.30;99.90;;;;;;4936326;29;20208;-80
2022/04/01 05:34:07;;;;;;;5.50;5.00;;;4.30;99.90;;;;;;4941972;29;20236;-74
2022/04/01 05:36:44;;;;;;;6.43;4.90;;;4.30;99.90;;;;;;4945507;29;20294;-75
2022/04/01 05:39:16;;;;;;;5.73;4.93;;;4.40;99.90;;;;;;4955291;29;20239;-77
2022/04/01 05:41:46;;;;;;;5.33;4.77;;;4.30;99.90;;;;;;4942459;29;20240;-79
2022/04/01 05:44:14;;;;;;;5.47;4.97;;;4.30;99.90;;;;;;4935104;29;20617;-81
2022/04/01 05:46:42;;;;;;;5.63;4.67;;;4.30;99.90;;;;;;4935333;29;20208;-79
2022/04/01 05:49:14;;;;;;;5.43;4.93;;;4.30;99.90;;;;;;4934482;29;20256;-78
2022/04/01 05:51:47;;;;;;;5.17;4.67;;;4.30;99.90;;;;;;4934812;29;20654;-79
2022/04/01 05:54:19;;;;;;;5.23;4.73;;;4.30;99.90;;;;;;4935084;29;20291;-77
2022/04/01 05:56:48;;;;;;;5.00;4.50;;;4.20;99.90;;;;;;4924829;29;20653;-79
2022/04/01 05:59:17;;;;;;;5.20;4.70;;;4.30;99.90;;;;;;4933934;29;20575;-78
2022/04/01 06:01:50;;;;;;;4.83;4.43;;;4.30;99.90;;;;;;4934648;29;20244;-79
2022/04/01 06:04:42;;;;;;;5.10;4.60;;;4.20;99.90;;;;;;4934411;29;20651;-79
2022/04/01 06:07:20;;;;;;;5.10;4.60;;;4.30;99.90;;;;;;4934491;29;20305;-80
2022/04/01 06:09:58;;;;;;;4.87;4.47;;;4.30;99.90;;;;;;4918445;29;20224;-81
2022/04/01 06:12:33;;;;;;;4.43;4.03;;;4.20;99.90;;;;;;4914802;29;20674;-78
2022/04/01 06:15:11;;;;;;;4.70;4.30;;;4.30;99.90;;;;;;4928498;29;20307;-79
2022/04/01 06:17:49;;;;;;;4.80;4.40;;;4.30;99.90;;;;;;4934093;29;20240;-77
2022/04/01 06:20:18;;;;;;;5.00;4.27;;;4.30;99.90;;;;;;4917932;29;20252;-79
2022/04/01 06:22:51;;;;;;;4.50;4.10;;;4.30;99.90;;;;;;4918142;29;20236;-77
2022/04/01 06:25:22;;;;;;;4.60;4.20;;;4.30;99.90;;;;;;4918918;29;20611;-78
2022/04/01 06:28:01;;;;;;;4.77;3.90;;;4.30;99.90;;;;;;4919786;29;20607;-78
2022/04/01 06:30:29;;;;;;;4.73;4.23;;;4.30;99.90;;;;;;4924623;29;20644;-80
2022/04/01 06:33:04;;;;;;;5.17;3.60;;;4.30;99.90;;;;;;4935442;29;20239;-78
2022/04/01 06:35:40;;;;;;;3.83;3.53;;;4.30;99.90;;;;;;4938276;29;20302;-77
2022/04/01 06:38:13;;;;;;;4.50;4.10;;;4.30;99.90;;;;;;4935274;29;20212;-77
2022/04/01 06:40:48;;;;;;;4.60;3.40;;;4.30;99.90;;;;;;4936708;29;20220;-76
2022/04/01 06:43:17;;;;;;;3.83;3.33;;;4.30;99.90;;;;;;4935526;29;20297;-78
2022/04/01 06:45:46;;;;;;;4.47;3.70;;;4.30;99.90;;;;;;4935410;29;20232;-78
2022/04/01 06:48:14;;;;;;;3.67;3.30;;;4.30;99.90;;;;;;4925408;29;20315;-79
2022/04/01 06:50:49;;;;;;;3.70;3.40;;;4.30;99.90;;;;;;4918223;29;20295;-77
2022/04/01 06:53:19;;;;;;;3.53;3.20;;;4.30;99.90;;;;;;4919090;29;20198;-78
2022/04/01 06:55:48;;;;;;;4.00;3.60;;;4.20;99.90;;;;;;4918663;29;20307;-80
2022/04/01 06:58:16;;;;;;;3.73;3.27;;;4.20;99.90;;;;;;4918537;29;20302;-77
2022/04/01 07:00:44;;;;;;;5.23;4.27;;;4.10;99.90;;;;;;4918700;29;20228;-78
2022/04/01 07:03:13;;;;;;;5.23;4.50;;;4.10;99.90;;;;;;4919325;29;20268;-79
2022/04/01 07:05:42;;;;;;;6.60;4.00;;;4.10;99.90;;;;;;4935111;29;20231;-78
2022/04/01 07:08:12;;;;;;;4.03;3.63;;;4.00;99.90;;;;;;4931736;29;20293;-78
2022/04/01 07:10:41;;;;;;;4.20;3.80;;;4.00;99.90;;;;;;4918618;29;20236;-72
2022/04/01 07:13:10;;;;;;;3.80;3.40;;;4.10;99.90;;;;;;4919429;29;20219;-76
2022/04/01 07:15:39;;;;;;;4.83;3.13;;;4.10;99.90;;;;;;4928173;29;20229;-77
2022/04/01 07:18:07;;;;;;;3.57;3.00;;;4.10;99.90;;;;;;4937865;29;20215;-76
2022/04/01 07:20:36;;;;;;;3.00;2.70;;;4.10;99.90;;;;;;4937529;29;20677;-79
2022/04/01 07:23:04;;;;;;;3.03;2.70;;;4.20;99.90;;;;;;4919715;29;20307;-77
2022/04/01 07:25:33;;;;;;;2.60;2.40;;;4.10;99.90;;;;;;4918477;29;20563;-77
2022/04/01 07:28:02;;;;;;;2.53;2.33;;;4.20;99.90;;;;;;4918254;29;20265;-79
2022/04/01 07:30:30;;;;;;;2.70;2.50;;;4.20;99.90;;;;;;4918339;29;20209;-74
2022/04/01 07:33:03;;;;;;;2.40;2.20;;;4.30;99.90;;;;;;4918212;29;20634;-78
2022/04/01 07:35:34;;;;;;;2.23;2.03;;;4.40;99.90;;;;;;4920791;29;20197;-78
2022/04/01 07:38:03;;;;;;;1.87;1.77;;;4.30;99.90;;;;;;4927752;29;20212;-75
2022/04/01 07:40:32;;;;;;;2.07;1.87;;;4.30;99.90;;;;;;4944541;29;20278;-77
2022/04/01 07:43:05;;;;;;;2.20;2.00;;;4.20;99.90;;;;;;4943376;29;20303;-78
2022/04/01 07:45:34;;;;;;;2.73;1.97;;;4.30;99.90;;;;;;4942491;29;20233;-76
2022/04/01 07:48:03;;;;;;;2.50;2.30;;;4.30;99.90;;;;;;4947500;29;20215;-77
2022/04/01 07:50:31;;;;;;;2.07;1.87;;;4.30;99.90;;;;;;4944858;29;20674;-76
2022/04/01 07:53:00;;;;;;;2.10;1.90;;;4.20;99.90;;;;;;4947330;29;20216;-76
2022/04/01 07:55:29;;;;;;;1.77;1.67;;;4.10;99.90;;;;;;4947603;29;20223;-77
2022/04/01 07:57:57;;;;;;;2.80;1.90;;;3.90;99.90;;;;;;4941565;29;20232;-77
2022/04/01 08:00:47;;;;;;;1.97;1.70;;;3.80;99.90;;;;;;4943616;29;20214;-76
2022/04/01 08:03:16;;;;;;;1.73;1.60;;;3.90;99.90;;;;;;4943983;29;20263;-79
2022/04/01 08:05:47;;;;;;;2.00;1.60;;;3.80;99.90;;;;;;4946778;29;20221;-77
2022/04/01 08:08:19;;;;;;;1.57;1.47;;;3.80;99.90;;;;;;4946206;29;20240;-76
2022/04/01 08:10:47;;;;;;;2.83;1.80;;;3.90;99.90;;;;;;4944912;29;20197;-78
2022/04/01 08:13:15;;;;;;;1.63;1.53;;;3.90;99.90;;;;;;4942642;29;20213;-77
2022/04/01 08:15:45;;;;;;;1.37;1.27;;;4.00;99.90;;;;;;4923552;29;20219;-79
2022/04/01 08:18:21;;;;;;;1.33;1.23;;;4.00;99.90;;;;;;4925425;29;20594;-76
2022/04/01 08:20:49;;;;;;;1.10;1.00;;;4.10;99.90;;;;;;4927485;29;20197;-76
2022/04/01 08:23:19;;;;;;;1.70;1.33;;;4.00;99.90;;;;;;4927022;29;20207;-76
2022/04/01 08:25:47;;;;;;;1.30;1.20;;;4.10;99.90;;;;;;4927528;29;20306;-77
2022/04/01 08:28:16;;;;;;;1.13;1.10;;;4.10;99.90;;;;;;4926893;29;20216;-78
2022/04/01 08:30:45;;;;;;;1.87;1.70;;;4.10;99.90;;;;;;4926667;29;20227;-77
2022/04/01 08:33:17;;;;;;;1.37;1.27;;;4.20;99.90;;;;;;4925173;29;20296;-76
2022/04/01 08:35:47;;;;;;;2.07;1.30;;;4.20;99.90;;;;;;4926562;29;20263;-77
2022/04/01 08:38:16;;;;;;;1.30;1.20;;;4.30;99.90;;;;;;4927555;29;20229;-78
2022/04/01 08:40:45;;;;;;;1.90;1.60;;;4.40;99.90;;;;;;4944057;29;20217;-76
2022/04/01 08:43:13;;;;;;;1.33;1.23;;;4.20;99.90;;;;;;4944764;29;20227;-76
2022/04/01 08:45:42;;;;;;;1.30;1.20;;;4.20;99.90;;;;;;4943741;29;20267;-79
2022/04/01 08:48:11;;;;;;;1.73;1.20;;;4.20;99.90;;;;;;4926381;29;20209;-76
2022/04/01 08:50:42;;;;;;;1.20;1.20;;;4.10;99.90;;;;;;4926683;29;20299;-77
2022/04/01 08:53:12;;;;;;;2.13;1.30;;;4.10;99.90;;;;;;4925831;29;20213;-76
2022/04/01 08:55:45;;;;;;;1.57;1.37;;;4.00;99.90;;;;;;4926611;29;20240;-78
2022/04/01 08:58:13;;;;;;;1.60;1.50;;;4.00;99.90;;;;;;4922124;29;20284;-77
2022/04/01 09:00:43;;;;;;;1.40;1.30;;;4.00;99.90;;;;;;4926076;29;20225;-77
2022/04/01 09:03:13;;;;;;;1.40;1.30;;;4.00;99.90;;;;;;4928374;29;20220;-79
2022/04/01 09:05:46;;;;;;;1.40;1.30;;;4.00;99.90;;;;;;4944242;29;20220;-76
2022/04/01 09:08:15;;;;;;;1.77;1.40;;;4.00;99.90;;;;;;4944473;29;20248;-78
2022/04/01 09:10:54;;;;;;;1.63;1.43;;;4.00;99.90;;;;;;4932942;29;20259;-77
2022/04/01 09:13:24;;;;;;;1.13;1.00;;;4.00;99.90;;;;;;4941825;29;20207;-75
2022/04/01 09:15:53;;;;;;;1.17;1.17;;;4.00;99.90;;;;;;4943857;29;20228;-76
2022/04/01 09:18:39;;;;;;;1.30;1.20;;;4.10;99.90;;;;;;4944793;29;20315;-81
2022/04/01 09:21:11;;;;;;;1.30;1.20;;;4.20;99.90;;;;;;4943247;29;20220;-76
2022/04/01 09:23:47;;;;;;;1.30;1.20;;;4.20;99.90;;;;;;4944845;29;20199;-78
2022/04/01 09:26:21;;;;;;;2.07;1.87;;;4.30;99.90;;;;;;4944462;29;20212;-78
2022/04/01 09:28:53;;;;;;;1.20;1.10;;;4.40;99.90;;;;;;4943545;29;20200;-75
2022/04/01 09:31:33;;;;;;;1.03;1.03;;;4.50;99.90;;;;;;4942698;29;20203;-80
2022/04/01 09:34:11;;;;;;;1.20;1.10;;;4.70;99.90;;;;;;4942008;29;20203;-77
2022/04/01 09:36:41;;;;;;;1.00;1.00;;;4.70;99.90;;;;;;4940642;29;20185;-77
2022/04/01 09:39:14;;;;;;;1.20;1.10;;;4.80;99.90;;;;;;4936348;29;20200;-76
2022/04/01 09:41:46;;;;;;;1.87;1.33;;;4.70;99.90;;;;;;4938446;29;20304;-80
2022/04/01 09:44:31;;;;;;;1.30;1.20;;;4.90;99.90;;;;;;4941686;29;20223;-75
2022/04/01 09:47:02;;;;;;;0.90;0.90;;;5.00;99.90;;;;;;4938447;29;20273;-78
2022/04/01 09:49:34;;;;;;;1.10;1.00;;;4.90;99.90;;;;;;4940724;29;20200;-77
2022/04/01 09:52:07;;;;;;;2.10;1.40;;;4.90;99.90;;;;;;4939104;29;20243;-76
2022/04/01 09:54:44;;;;;;;1.10;1.10;;;4.80;99.90;;;;;;4942017;29;20201;-78
2022/04/01 09:57:15;;;;;;;1.20;1.10;;;5.00;99.90;;;;;;4940937;29;20231;-75
2022/04/01 09:59:45;;;;;;;1.30;1.20;;;5.00;99.90;;;;;;4941199;29;20800;-78
2022/04/01 10:02:14;;;;;;;1.10;1.00;;;5.00;99.90;;;;;;4940448;29;20223;-77
2022/04/01 10:04:42;;;;;;;1.20;1.20;;;5.10;99.90;;;;;;4935140;29;20332;-78
2022/04/01 10:07:12;;;;;;;1.50;1.40;;;5.10;99.90;;;;;;4927493;29;20243;-77
2022/04/01 10:09:43;;;;;;;1.73;1.30;;;5.10;99.90;;;;;;4921667;29;20194;-77
2022/04/01 10:12:34;;;;;;;1.20;1.10;;;5.00;99.90;;;;;;4940140;29;20291;-75
2022/04/01 10:15:06;;;;;;;1.10;1.00;;;5.00;99.90;;;;;;4943712;29;20219;-76
2022/04/01 10:17:57;;;;;;;1.00;1.00;;;4.90;99.90;;;;;;4941821;29;20239;-75
2022/04/01 10:20:31;;;;;;;1.50;1.40;;;4.80;99.90;;;;;;4941363;29;20224;-77
2022/04/01 10:23:03;;;;;;;1.80;1.13;;;4.70;99.90;;;;;;4941976;29;20250;-78
2022/04/01 10:25:40;;;;;;;1.33;1.20;;;4.60;99.90;;;;;;4941313;29;20203;-75
2022/04/01 10:28:10;;;;;;;1.20;1.10;;;4.50;99.90;;;;;;4941681;29;20216;-76
2022/04/01 10:30:40;;;;;;;1.20;1.10;;;4.30;99.90;;;;;;4940592;29;20258;-76
2022/04/01 10:33:09;;;;;;;1.70;1.33;;;4.20;99.90;;;;;;4940204;29;20223;-77
2022/04/01 10:35:40;;;;;;;1.50;1.40;;;4.30;99.90;;;;;;4939181;29;20213;-78
2022/04/01 10:38:20;;;;;;;1.20;1.10;;;4.30;99.90;;;;;;4939282;29;20238;-76
2022/04/01 10:40:51;;;;;;;1.13;1.00;;;4.30;99.90;;;;;;4938282;29;20718;-81
2022/04/01 10:43:22;;;;;;;1.17;1.10;;;4.30;99.90;;;;;;4942073;29;20222;-74
2022/04/01 10:46:00;;;;;;;0.97;0.97;;;4.30;99.90;;;;;;4939097;29;20239;-76
2022/04/01 10:51:41;;;;;;;1.30;1.20;;;4.50;99.90;;;;;;4938147;29;20259;-75
2022/04/01 10:54:42;;;;;;;1.20;1.10;;;4.40;99.90;;;;;;4938627;29;20200;-74
2022/04/01 10:57:15;;;;;;;1.00;1.00;;;4.40;99.90;;;;;;4928527;29;20229;-75
2022/04/01 10:59:45;;;;;;;1.00;1.00;;;4.50;99.90;;;;;;4928904;29;20691;-75
2022/04/01 11:02:15;;;;;;;1.40;1.30;;;4.40;99.90;;;;;;4919475;29;20259;-79
